Time;durP1;ratioP1;P1;durP2;ratioP2;P2;SDS_P1;SDS_P2;PMS_P1;PMS_P2;Temp;Humidity;BMP_temperature;BMP_pressure;BME280_temperature;BME280_humidity;BME280_pressure;Samples;Min_cycle;Max_cycle;Signal;HPM_P1;HPM_P2
2022/01/18 00:00:15;;;;;;;12.90;2.72;;;7.80;99.90;;;;;;5077435;28;20075;-47
2022/01/18 00:02:41;;;;;;;10.10;1.67;;;7.80;99.90;;;;;;5059655;28;20031;-48
2022/01/18 00:05:13;;;;;;;14.18;1.70;;;7.90;99.90;;;;;;5058994;28;20028;-48
2022/01/18 00:07:39;;;;;;;6.15;1.58;;;7.90;99.90;;;;;;5059605;28;20025;-47
2022/01/18 00:10:05;;;;;;;7.40;1.35;;;8.00;99.90;;;;;;5058621;28;20090;-49
2022/01/18 00:12:54;;;;;;;6.38;1.17;;;8.00;99.90;;;;;;5058614;28;20021;-47
2022/01/18 00:18:18;;;;;;;2.97;1.38;;;7.90;99.90;;;;;;5076991;28;20024;-46
2022/01/18 00:23:14;;;;;;;7.85;1.88;;;7.90;99.90;;;;;;5076846;28;20029;-48
2022/01/18 00:25:43;;;;;;;7.10;1.55;;;7.90;99.90;;;;;;5076289;28;20028;-47
2022/01/18 00:28:09;;;;;;;6.38;1.52;;;7.80;99.90;;;;;;5059301;28;20021;-48
2022/01/18 00:33:21;;;;;;;4.45;1.58;;;7.70;99.90;;;;;;5076275;28;20021;-51
2022/01/18 00:35:51;;;;;;;8.15;2.10;;;7.80;99.90;;;;;;5058196;28;20029;-49
2022/01/18 00:38:29;;;;;;;7.22;2.83;;;7.80;99.90;;;;;;5058221;28;20120;-46
2022/01/18 00:40:56;;;;;;;5.30;1.38;;;7.80;99.90;;;;;;5076641;28;20020;-47
2022/01/18 00:43:21;;;;;;;6.20;1.23;;;7.90;99.90;;;;;;5058144;28;20024;-48
2022/01/18 00:45:47;;;;;;;4.00;1.17;;;8.00;99.90;;;;;;5075792;28;20035;-49
2022/01/18 00:48:13;;;;;;;7.53;1.35;;;8.00;99.90;;;;;;5058003;28;20024;-53
2022/01/18 00:50:39;;;;;;;8.52;1.65;;;8.00;99.90;;;;;;5075902;28;20035;-52
2022/01/18 00:53:11;;;;;;;10.13;1.90;;;7.90;99.90;;;;;;5057675;28;20035;-49
2022/01/18 00:55:48;;;;;;;5.38;1.83;;;7.90;99.90;;;;;;5059016;28;20131;-51
2022/01/18 00:58:14;;;;;;;9.65;1.85;;;7.90;99.90;;;;;;5058120;28;20088;-48
2022/01/18 01:00:41;;;;;;;11.68;1.65;;;7.80;99.90;;;;;;5075678;28;20035;-49
2022/01/18 01:03:07;;;;;;;9.75;1.85;;;7.80;99.90;;;;;;5057839;28;20025;-47
2022/01/18 01:05:32;;;;;;;1.83;1.15;;;7.80;99.90;;;;;;5075560;28;20028;-47
2022/01/18 01:07:58;;;;;;;11.65;1.30;;;7.80;99.90;;;;;;5075481;28;20031;-46
2022/01/18 01:10:24;;;;;;;12.40;1.52;;;7.70;99.90;;;;;;5058342;28;20448;-46
2022/01/18 01:12:50;;;;;;;9.82;1.60;;;7.70;99.90;;;;;;5075392;28;20023;-46
2022/01/18 01:15:18;;;;;;;6.80;2.03;;;7.60;99.90;;;;;;5075961;28;20043;-48
2022/01/18 01:45:06;;;;;;;9.93;1.70;;;7.40;99.90;;;;;;5075434;28;20464;-46
2022/01/18 01:47:36;;;;;;;11.30;1.65;;;7.40;99.90;;;;;;5074850;28;20054;-46
2022/01/18 01:50:08;;;;;;;8.73;1.77;;;7.50;99.90;;;;;;5056744;28;20032;-49
2022/01/18 01:52:33;;;;;;;14.38;1.95;;;7.70;99.90;;;;;;5056867;28;20040;-47
2022/01/18 01:54:59;;;;;;;3.85;1.27;;;7.70;99.90;;;;;;5057070;28;20025;-46
2022/01/18 01:57:25;;;;;;;5.35;1.30;;;7.80;99.90;;;;;;5057459;28;20021;-47
2022/01/18 01:59:51;;;;;;;8.75;1.60;;;7.80;99.90;;;;;;5058328;28;20027;-47
2022/01/18 02:02:18;;;;;;;13.10;2.00;;;7.80;99.90;;;;;;5075284;28;20051;-46
2022/01/18 02:04:44;;;;;;;5.53;1.08;;;7.80;99.90;;;;;;5057147;28;20051;-47
2022/01/18 02:07:09;;;;;;;6.10;1.40;;;7.80;99.90;;;;;;5057191;28;20035;-47
2022/01/18 02:09:35;;;;;;;5.93;1.70;;;7.80;99.90;;;;;;5057554;28;20457;-46
2022/01/18 02:12:01;;;;;;;9.02;2.00;;;7.70;99.90;;;;;;5056814;28;20467;-49
2022/01/18 02:14:29;;;;;;;4.93;1.48;;;7.60;99.90;;;;;;5056884;28;20020;-46
2022/01/18 02:22:24;;;;;;;8.50;1.60;;;7.70;99.90;;;;;;5074804;28;20185;-46
2022/01/18 02:24:50;;;;;;;6.80;1.58;;;7.70;99.90;;;;;;5056436;28;20031;-47
2022/01/18 02:27:16;;;;;;;16.88;2.22;;;7.60;99.90;;;;;;5074625;28;20024;-48
2022/01/18 02:29:43;;;;;;;7.95;1.52;;;7.60;99.90;;;;;;5056696;28;20017;-49
2022/01/18 02:32:09;;;;;;;9.85;1.67;;;7.60;99.90;;;;;;5057838;28;20115;-46
2022/01/18 02:34:35;;;;;;;6.20;1.30;;;7.60;99.90;;;;;;5074429;28;20074;-47
2022/01/18 02:37:03;;;;;;;6.25;1.63;;;7.60;99.90;;;;;;5057123;28;20024;-52
2022/01/18 02:39:29;;;;;;;11.35;1.60;;;7.60;99.90;;;;;;5058839;28;20032;-46
2022/01/18 02:42:03;;;;;;;9.07;1.50;;;7.60;99.90;;;;;;5057992;28;20047;-51
2022/01/18 02:44:31;;;;;;;4.35;1.90;;;7.70;99.90;;;;;;5058857;28;20546;-49
2022/01/18 02:46:58;;;;;;;10.75;1.52;;;7.70;99.90;;;;;;5076167;28;20035;-49
2022/01/18 02:49:27;;;;;;;14.32;2.28;;;7.70;99.90;;;;;;5058206;28;20399;-51
2022/01/18 02:51:59;;;;;;;7.40;1.67;;;7.70;99.90;;;;;;5057773;28;20557;-47
2022/01/18 02:54:25;;;;;;;5.72;1.38;;;7.80;99.90;;;;;;5057156;28;20024;-47
2022/01/18 02:56:56;;;;;;;8.95;1.45;;;7.80;99.90;;;;;;5057274;28;20032;-49
2022/01/18 02:59:31;;;;;;;8.63;2.10;;;7.80;99.90;;;;;;5056514;28;20079;-46
2022/01/18 03:04:44;;;;;;;5.57;1.70;;;7.80;99.90;;;;;;5074067;28;20094;-47
2022/01/18 03:07:11;;;;;;;4.63;1.52;;;7.80;99.90;;;;;;5055468;28;20025;-47
2022/01/18 03:09:37;;;;;;;4.97;2.00;;;7.70;99.90;;;;;;5055413;28;20085;-47
2022/01/18 03:12:04;;;;;;;9.50;1.70;;;7.70;99.90;;;;;;5055433;28;20437;-47
2022/01/18 03:14:30;;;;;;;6.22;1.60;;;7.60;99.90;;;;;;5073741;28;20020;-47
2022/01/18 03:16:55;;;;;;;6.50;1.40;;;7.50;99.90;;;;;;5068973;23;20044;-54
2022/01/18 03:19:21;;;;;;;6.82;1.48;;;7.40;99.90;;;;;;5053345;28;20100;-57
2022/01/18 03:21:47;;;;;;;5.43;1.40;;;7.40;99.90;;;;;;5053313;28;20032;-51
2022/01/18 03:29:30;;;;;;;3.45;1.27;;;7.40;99.90;;;;;;5024651;28;20037;-53
2022/01/18 03:31:55;;;;;;;5.45;1.20;;;7.40;99.90;;;;;;5053254;28;20013;-54
2022/01/18 03:34:21;;;;;;;7.32;1.55;;;7.50;99.90;;;;;;5053466;28;20048;-57
2022/01/18 03:36:47;;;;;;;7.85;2.03;;;7.70;99.90;;;;;;5053008;28;20033;-52
2022/01/18 03:39:14;;;;;;;7.68;1.92;;;7.70;99.90;;;;;;5053137;28;20029;-56
2022/01/18 03:41:39;;;;;;;14.50;2.42;;;7.60;99.90;;;;;;5035255;28;20071;-56
2022/01/18 03:44:06;;;;;;;5.63;2.40;;;7.60;99.90;;;;;;5035275;28;20029;-55
2022/01/18 03:46:36;;;;;;;4.72;1.25;;;7.60;99.90;;;;;;5035112;28;20025;-55
2022/01/18 03:49:04;;;;;;;9.40;1.98;;;7.70;99.90;;;;;;5036026;28;20021;-54
2022/01/18 03:51:29;;;;;;;9.40;2.47;;;7.60;99.90;;;;;;5035431;28;20392;-57
2022/01/18 03:53:55;;;;;;;5.38;2.10;;;7.60;99.90;;;;;;5035098;28;20021;-53
2022/01/18 03:56:21;;;;;;;11.65;3.50;;;7.50;99.90;;;;;;5053025;28;20028;-57
2022/01/18 03:58:46;;;;;;;11.13;2.80;;;7.40;99.90;;;;;;5036220;28;20074;-57
2022/01/18 04:01:12;;;;;;;6.05;2.20;;;7.40;99.90;;;;;;5035331;28;20021;-55
2022/01/18 04:03:37;;;;;;;8.88;2.80;;;7.40;99.90;;;;;;5035923;28;20032;-53
2022/01/18 04:06:03;;;;;;;11.55;2.40;;;7.30;99.90;;;;;;5034994;28;20063;-55
2022/01/18 04:08:29;;;;;;;6.95;1.92;;;7.30;99.90;;;;;;5053008;28;20025;-55
2022/01/18 04:10:54;;;;;;;10.98;1.95;;;7.40;99.90;;;;;;5034923;28;20032;-57
2022/01/18 04:13:20;;;;;;;7.28;2.40;;;7.30;99.90;;;;;;5034879;28;20032;-57
2022/01/18 04:15:46;;;;;;;12.65;2.17;;;7.40;99.90;;;;;;5034650;28;20029;-57
2022/01/18 04:28:50;;;;;;;10.50;3.67;;;7.50;99.90;;;;;;5056733;28;20014;-53
2022/01/18 04:31:15;;;;;;;14.48;2.80;;;7.40;99.90;;;;;;5056300;28;20021;-57
2022/01/18 04:33:41;;;;;;;7.72;1.50;;;7.40;99.90;;;;;;5038448;28;20465;-53
2022/01/18 04:36:08;;;;;;;16.45;2.90;;;7.40;99.90;;;;;;5056398;28;20032;-57
2022/01/18 04:38:35;;;;;;;10.27;2.22;;;7.40;99.90;;;;;;5038718;28;20025;-55
2022/01/18 04:41:10;;;;;;;9.05;1.92;;;7.30;99.90;;;;;;5038276;28;20033;-53
2022/01/18 04:44:06;;;;;;;5.78;2.05;;;7.30;99.90;;;;;;5038236;28;20025;-54
2022/01/18 04:49:16;;;;;;;7.93;2.17;;;7.30;99.90;;;;;;5056293;28;20064;-53
2022/01/18 04:51:44;;;;;;;8.23;1.50;;;7.20;99.90;;;;;;5037982;28;20022;-56
2022/01/18 04:54:10;;;;;;;8.48;1.90;;;7.10;99.90;;;;;;5055900;28;20032;-56
2022/01/18 04:59:07;;;;;;;8.52;1.70;;;7.00;99.90;;;;;;5056013;28;20032;-53
2022/01/18 05:01:34;;;;;;;4.30;1.73;;;7.10;99.90;;;;;;5055742;28;20021;-56
2022/01/18 05:04:00;;;;;;;10.20;2.30;;;7.10;99.90;;;;;;5055691;28;20025;-55
2022/01/18 05:06:25;;;;;;;3.50;1.42;;;7.10;99.90;;;;;;5037619;28;20021;-56
2022/01/18 05:08:51;;;;;;;6.40;1.80;;;7.10;99.90;;;;;;5055886;28;20487;-56
2022/01/18 05:11:19;;;;;;;6.72;1.67;;;7.10;99.90;;;;;;5038103;28;20024;-52
2022/01/18 05:24:15;;;;;;;15.60;2.90;;;7.30;99.90;;;;;;5056063;28;20032;-51
2022/01/18 05:26:41;;;;;;;7.03;2.97;;;7.10;99.90;;;;;;5037336;28;20021;-54
2022/01/18 05:29:06;;;;;;;9.40;3.22;;;7.00;99.90;;;;;;5037631;28;20028;-50
2022/01/18 05:31:32;;;;;;;13.10;2.92;;;6.90;99.90;;;;;;5037297;28;20025;-55
2022/01/18 05:33:58;;;;;;;10.32;3.40;;;6.90;99.90;;;;;;5055816;28;20554;-50
2022/01/18 05:36:23;;;;;;;20.58;3.40;;;6.90;99.90;;;;;;5055062;28;20446;-51
2022/01/18 05:38:49;;;;;;;10.77;2.50;;;6.90;99.90;;;;;;5037321;28;20457;-49
2022/01/18 05:41:15;;;;;;;5.60;2.53;;;6.80;99.90;;;;;;5037094;28;20053;-50
2022/01/18 05:43:40;;;;;;;10.82;2.28;;;6.80;99.90;;;;;;5037045;28;20025;-55
2022/01/18 05:46:06;;;;;;;8.98;4.18;;;6.80;99.90;;;;;;5036880;28;20025;-52
2022/01/18 05:48:32;;;;;;;9.18;2.58;;;6.90;99.90;;;;;;5054845;28;20028;-53
2022/01/18 05:51:00;;;;;;;11.05;4.53;;;6.80;99.90;;;;;;5037013;28;20079;-54
2022/01/18 05:53:31;;;;;;;12.75;4.63;;;6.80;99.90;;;;;;5037416;28;20028;-52
2022/01/18 05:56:00;;;;;;;13.63;4.57;;;6.80;99.90;;;;;;5036823;28;20024;-53
2022/01/18 05:58:26;;;;;;;13.88;4.47;;;6.90;99.90;;;;;;5036859;28;20022;-54
2022/01/18 06:00:55;;;;;;;10.38;2.90;;;7.00;99.90;;;;;;5036738;28;20032;-53
2022/01/18 06:03:51;;;;;;;27.85;7.55;;;6.90;99.90;;;;;;5037514;28;20025;-51
2022/01/18 06:09:01;;;;;;;7.45;3.00;;;6.90;99.90;;;;;;5055016;28;20052;-51
2022/01/18 06:11:27;;;;;;;11.80;3.20;;;6.90;99.90;;;;;;5036901;28;20056;-54
2022/01/18 06:13:52;;;;;;;9.45;2.65;;;6.90;99.90;;;;;;5054690;28;20017;-50
2022/01/18 06:16:18;;;;;;;5.45;2.33;;;6.90;99.90;;;;;;5036482;28;20040;-54
2022/01/18 06:18:44;;;;;;;4.97;1.52;;;6.90;99.90;;;;;;5054279;28;20028;-54
2022/01/18 06:21:10;;;;;;;9.90;1.77;;;7.00;99.90;;;;;;5036466;28;20025;-54
2022/01/18 06:23:36;;;;;;;7.50;1.70;;;7.00;99.90;;;;;;5036829;28;20052;-52
2022/01/18 06:26:03;;;;;;;6.07;2.63;;;7.00;99.90;;;;;;5036037;28;20083;-52
2022/01/18 06:28:32;;;;;;;4.78;2.00;;;7.00;99.90;;;;;;5054168;28;20040;-53
2022/01/18 06:30:58;;;;;;;5.22;1.88;;;7.00;99.90;;;;;;5054113;28;20017;-53
2022/01/18 06:33:24;;;;;;;6.68;2.05;;;7.00;99.90;;;;;;5053982;28;20028;-53
2022/01/18 06:35:50;;;;;;;10.13;2.28;;;7.10;99.90;;;;;;5053942;28;20029;-53
2022/01/18 06:38:16;;;;;;;6.50;1.90;;;7.10;99.90;;;;;;5054020;28;20032;-52
2022/01/18 06:40:41;;;;;;;6.00;1.75;;;7.10;99.90;;;;;;5036590;28;20029;-50
2022/01/18 06:43:07;;;;;;;6.47;2.17;;;7.20;99.90;;;;;;5036330;28;20025;-52
2022/01/18 06:45:33;;;;;;;3.00;1.50;;;7.20;99.90;;;;;;5053623;28;20025;-53
2022/01/18 06:47:59;;;;;;;5.38;1.70;;;7.10;99.90;;;;;;5036618;28;20021;-55
2022/01/18 06:50:24;;;;;;;5.38;2.30;;;7.00;99.90;;;;;;5035654;28;20103;-56
2022/01/18 06:52:50;;;;;;;8.40;1.88;;;6.80;99.90;;;;;;5053655;28;20052;-53
2022/01/18 06:55:15;;;;;;;5.45;1.70;;;6.80;99.90;;;;;;5035750;28;20021;-53
2022/01/18 06:57:41;;;;;;;5.47;2.42;;;6.80;99.90;;;;;;5053471;28;20096;-52
2022/01/18 07:00:07;;;;;;;13.95;2.13;;;6.70;99.90;;;;;;5035659;28;20472;-52
2022/01/18 07:02:33;;;;;;;9.45;2.65;;;6.70;99.90;;;;;;5035581;28;20051;-54
2022/01/18 07:04:59;;;;;;;6.43;2.45;;;6.70;99.90;;;;;;5053514;28;20032;-54
2022/01/18 07:07:25;;;;;;;20.30;8.38;;;6.70;99.90;;;;;;5035547;28;20025;-52
2022/01/18 07:09:51;;;;;;;8.40;3.10;;;6.80;99.90;;;;;;5053408;28;20078;-53
2022/01/18 07:12:18;;;;;;;9.13;3.38;;;6.80;99.90;;;;;;5035581;28;20025;-53
2022/01/18 07:14:44;;;;;;;9.98;3.22;;;6.90;99.90;;;;;;5053349;28;20013;-55
2022/01/18 07:17:10;;;;;;;5.82;2.13;;;6.80;99.90;;;;;;5053513;28;20044;-56
2022/01/18 07:19:37;;;;;;;5.75;2.33;;;6.90;99.90;;;;;;5035795;28;20025;-54
2022/01/18 07:22:03;;;;;;;6.50;1.80;;;6.90;99.90;;;;;;5035376;28;20025;-56
2022/01/18 07:24:41;;;;;;;9.68;2.22;;;7.00;99.90;;;;;;5053196;28;20021;-51
2022/01/18 07:27:08;;;;;;;9.52;2.17;;;7.00;99.90;;;;;;5035304;28;20029;-52
2022/01/18 07:29:35;;;;;;;5.97;2.03;;;6.80;99.90;;;;;;5035293;28;20048;-53
2022/01/18 07:32:01;;;;;;;14.07;2.03;;;6.90;99.90;;;;;;5053041;28;20056;-54
2022/01/18 07:34:27;;;;;;;8.02;1.85;;;7.00;99.90;;;;;;5035238;28;20025;-49
2022/01/18 07:36:52;;;;;;;7.90;2.22;;;7.00;99.90;;;;;;5035151;28;20029;-52
2022/01/18 07:39:18;;;;;;;11.88;2.53;;;6.90;99.90;;;;;;5035140;28;20021;-50
2022/01/18 07:41:44;;;;;;;5.82;2.17;;;6.80;99.90;;;;;;5035255;28;20115;-49
2022/01/18 07:44:09;;;;;;;10.68;2.25;;;6.80;99.90;;;;;;5035468;28;20021;-54
2022/01/18 07:46:35;;;;;;;6.40;1.77;;;6.80;99.90;;;;;;5035392;28;20028;-52
2022/01/18 07:49:00;;;;;;;7.65;2.92;;;7.00;99.90;;;;;;5053374;28;20024;-54
2022/01/18 07:51:26;;;;;;;9.02;2.35;;;7.10;99.90;;;;;;5035184;28;20052;-51
2022/01/18 07:53:52;;;;;;;6.63;2.17;;;7.10;99.90;;;;;;5035459;28;20028;-50
2022/01/18 07:56:17;;;;;;;7.47;2.90;;;7.10;99.90;;;;;;5053164;28;20104;-53
2022/01/18 07:58:43;;;;;;;8.13;1.95;;;7.10;99.90;;;;;;5035055;28;20493;-49
2022/01/18 08:01:09;;;;;;;6.70;2.53;;;7.10;99.90;;;;;;5053126;28;20468;-51
2022/01/18 08:03:34;;;;;;;8.38;2.08;;;7.20;99.90;;;;;;5038593;28;20032;-53
2022/01/18 08:06:01;;;;;;;6.55;2.45;;;7.20;99.90;;;;;;5039474;28;20032;-50
2022/01/18 08:08:27;;;;;;;9.15;3.38;;;7.20;99.90;;;;;;5039265;28;20017;-50
2022/01/18 08:10:53;;;;;;;15.57;5.07;;;7.20;99.90;;;;;;5039337;28;20074;-51
2022/01/18 08:13:23;;;;;;;13.50;3.53;;;7.20;99.90;;;;;;5039585;28;20071;-52
2022/01/18 08:15:58;;;;;;;8.60;2.90;;;7.30;99.90;;;;;;5056639;28;20025;-54
2022/01/18 08:18:23;;;;;;;7.82;2.05;;;7.30;99.90;;;;;;5030692;28;20041;-51
2022/01/18 08:20:49;;;;;;;8.73;3.63;;;7.20;99.90;;;;;;5056791;28;20104;-50
2022/01/18 08:23:14;;;;;;;5.60;2.38;;;7.30;99.90;;;;;;5055900;28;20057;-55
2022/01/18 08:25:40;;;;;;;4.13;2.22;;;7.20;99.90;;;;;;5036031;28;20029;-54
2022/01/18 08:28:06;;;;;;;15.93;4.28;;;7.30;99.90;;;;;;5029829;28;20064;-57
2022/01/18 08:30:31;;;;;;;9.32;2.75;;;7.20;99.90;;;;;;5053088;28;20063;-53
2022/01/18 08:32:57;;;;;;;12.35;3.90;;;7.20;99.90;;;;;;5056340;28;20024;-53
2022/01/18 08:35:24;;;;;;;12.65;4.97;;;7.30;99.90;;;;;;5038763;28;20108;-54
2022/01/18 08:37:50;;;;;;;11.93;5.20;;;7.30;99.90;;;;;;5038710;28;20021;-50
2022/01/18 08:40:16;;;;;;;16.75;4.68;;;7.40;99.90;;;;;;5056183;28;20028;-50
2022/01/18 08:42:43;;;;;;;11.05;4.20;;;7.50;99.90;;;;;;5038336;28;20021;-50
2022/01/18 08:45:09;;;;;;;10.18;3.80;;;7.30;99.90;;;;;;5038218;28;20029;-54
2022/01/18 08:47:34;;;;;;;15.57;4.20;;;7.60;99.90;;;;;;5038041;28;20120;-52
2022/01/18 08:50:01;;;;;;;10.23;3.95;;;7.60;99.90;;;;;;5056306;28;20025;-53
2022/01/18 08:52:26;;;;;;;6.05;3.03;;;7.70;99.90;;;;;;5056109;28;20017;-54
2022/01/18 08:54:52;;;;;;;11.25;3.85;;;7.90;99.90;;;;;;5038980;28;20070;-55
2022/01/18 08:57:18;;;;;;;10.60;2.90;;;7.90;99.90;;;;;;5055877;28;20036;-55
2022/01/18 08:59:44;;;;;;;12.32;3.60;;;7.70;99.90;;;;;;5038222;28;20021;-56
2022/01/18 09:02:11;;;;;;;12.65;3.97;;;7.90;99.90;;;;;;5055790;28;20503;-53
2022/01/18 09:04:38;;;;;;;13.48;3.80;;;7.90;99.90;;;;;;5055932;28;20025;-51
2022/01/18 09:07:08;;;;;;;7.82;3.70;;;7.90;99.90;;;;;;5038578;28;20028;-54
2022/01/18 09:09:39;;;;;;;7.60;3.30;;;7.90;99.90;;;;;;5037796;28;20019;-49
2022/01/18 09:12:10;;;;;;;8.32;2.88;;;7.90;99.90;;;;;;5055557;28;20021;-52
2022/01/18 09:14:38;;;;;;;9.10;4.07;;;8.00;99.90;;;;;;5037576;28;20028;-52
2022/01/18 09:17:04;;;;;;;9.32;3.67;;;8.00;99.90;;;;;;5037508;28;20035;-52
2022/01/18 09:19:30;;;;;;;9.40;3.33;;;8.10;99.90;;;;;;5037555;28;20025;-53
2022/01/18 09:21:57;;;;;;;42.63;10.50;;;8.10;99.90;;;;;;5055295;28;20075;-50
2022/01/18 09:24:23;;;;;;;66.30;15.40;;;8.20;99.90;;;;;;5037546;28;20052;-51
2022/01/18 09:26:49;;;;;;;11.05;4.22;;;8.20;99.90;;;;;;5037584;28;20060;-54
2022/01/18 09:29:15;;;;;;;14.93;5.95;;;8.10;99.90;;;;;;5055514;28;20043;-52
2022/01/18 09:31:41;;;;;;;13.95;3.65;;;8.10;99.90;;;;;;5037253;28;20017;-55
2022/01/18 09:34:06;;;;;;;14.23;4.07;;;8.10;99.90;;;;;;5055437;28;20033;-52
2022/01/18 09:36:32;;;;;;;8.10;3.20;;;8.10;99.90;;;;;;5038100;28;20028;-52
2022/01/18 09:38:58;;;;;;;8.80;3.17;;;8.10;99.90;;;;;;5037169;28;20021;-55
2022/01/18 09:41:31;;;;;;;17.75;4.55;;;8.00;99.90;;;;;;5055048;28;20024;-54
2022/01/18 09:43:57;;;;;;;9.85;2.85;;;8.00;99.90;;;;;;5038248;28;20083;-54
2022/01/18 09:46:26;;;;;;;13.38;3.03;;;8.00;99.90;;;;;;5054743;28;20477;-51
2022/01/18 09:48:54;;;;;;;7.88;3.72;;;7.90;99.90;;;;;;5037243;28;20099;-50
2022/01/18 09:51:20;;;;;;;11.80;3.25;;;7.90;99.90;;;;;;5054733;28;20025;-54
2022/01/18 09:53:45;;;;;;;10.23;3.70;;;7.90;99.90;;;;;;5054818;28;20032;-49
2022/01/18 09:56:11;;;;;;;8.60;3.58;;;8.00;99.90;;;;;;5036814;28;20029;-52
2022/01/18 09:58:37;;;;;;;11.65;3.80;;;8.00;99.90;;;;;;5037148;28;20021;-50
2022/01/18 10:01:04;;;;;;;10.35;3.80;;;8.00;99.90;;;;;;5054978;28;20477;-51
2022/01/18 10:03:34;;;;;;;24.38;3.97;;;8.10;99.90;;;;;;5036652;28;20086;-52
2022/01/18 10:06:02;;;;;;;11.18;3.47;;;8.10;99.90;;;;;;5054408;28;20017;-50
2022/01/18 10:08:28;;;;;;;13.77;3.72;;;8.20;99.90;;;;;;5036634;28;20021;-49
2022/01/18 10:11:00;;;;;;;9.95;3.70;;;8.40;99.90;;;;;;5054715;28;20096;-51
2022/01/18 10:13:27;;;;;;;6.78;2.70;;;8.60;99.90;;;;;;5054380;28;20017;-52
2022/01/18 10:15:59;;;;;;;12.75;3.13;;;8.80;99.90;;;;;;5036216;28;20032;-53
2022/01/18 10:18:49;;;;;;;8.27;2.80;;;9.10;99.90;;;;;;5054282;28;20059;-54
2022/01/18 10:21:24;;;;;;;11.60;4.65;;;9.20;99.90;;;;;;5036946;28;20094;-51
2022/01/18 10:23:50;;;;;;;10.35;3.45;;;9.30;99.90;;;;;;5036389;28;20029;-52
2022/01/18 10:26:21;;;;;;;11.25;3.03;;;9.40;99.90;;;;;;5036060;28;20057;-55
2022/01/18 10:28:48;;;;;;;8.15;3.17;;;9.30;99.90;;;;;;5054327;28;20047;-55
2022/01/18 10:31:57;;;;;;;6.85;2.53;;;9.30;99.90;;;;;;5036210;28;20028;-52
2022/01/18 10:37:04;;;;;;;4.50;2.50;;;9.40;99.90;;;;;;5054243;28;20473;-50
2022/01/18 10:39:34;;;;;;;7.07;3.15;;;9.40;99.90;;;;;;5036122;28;20092;-52
2022/01/18 10:42:11;;;;;;;8.85;3.35;;;9.50;99.90;;;;;;5054221;28;20032;-54
2022/01/18 10:44:37;;;;;;;10.05;4.38;;;9.60;99.90;;;;;;5036070;28;20025;-55
2022/01/18 10:47:03;;;;;;;11.32;4.93;;;9.60;99.90;;;;;;5035932;28;20025;-56
2022/01/18 10:49:45;;;;;;;16.63;4.88;;;9.60;99.90;;;;;;5035895;28;20021;-51
2022/01/18 10:52:22;;;;;;;12.98;4.80;;;9.70;99.90;;;;;;5035933;28;20045;-50
2022/01/18 10:54:54;;;;;;;13.65;4.28;;;9.70;99.90;;;;;;5035869;28;20024;-51
2022/01/18 10:57:36;;;;;;;13.50;4.53;;;9.80;99.90;;;;;;5036270;28;20048;-52
2022/01/18 11:00:05;;;;;;;;;;;9.90;99.90;;;;;;5054016;28;20029;-50
2022/01/18 11:02:37;;;;;;;6.47;3.50;;;9.80;99.90;;;;;;5036056;28;19909;-50
2022/01/18 11:05:18;;;;;;;15.30;4.43;;;9.80;99.90;;;;;;5053539;28;20374;-51
2022/01/18 11:08:29;;;;;;;15.45;5.13;;;9.90;99.90;;;;;;5053714;28;20044;-50
2022/01/18 11:10:54;;;;;;;12.50;5.25;;;10.00;99.90;;;;;;5036060;28;20024;-51
2022/01/18 11:13:23;;;;;;;61.47;18.25;;;10.10;99.90;;;;;;5036400;28;20021;-53
2022/01/18 11:15:53;;;;;;;28.90;9.90;;;10.10;99.90;;;;;;5053162;28;20028;-55
2022/01/18 11:18:29;;;;;;;20.00;7.30;;;10.10;99.90;;;;;;5036016;28;20037;-56
2022/01/18 11:20:56;;;;;;;14.43;4.65;;;10.10;99.90;;;;;;5053651;28;20043;-54
2022/01/18 11:23:23;;;;;;;13.27;4.25;;;10.40;99.90;;;;;;5053194;28;20025;-55
2022/01/18 11:25:50;;;;;;;10.23;3.40;;;10.40;99.90;;;;;;5035975;28;20060;-55
2022/01/18 11:28:16;;;;;;;12.95;4.40;;;10.40;99.90;;;;;;5035483;28;20108;-56
2022/01/18 11:30:44;;;;;;;10.05;4.57;;;10.40;99.90;;;;;;5035310;28;20056;-55
2022/01/18 11:33:18;;;;;;;8.13;4.15;;;10.60;99.90;;;;;;5035278;28;20017;-54
2022/01/18 11:35:51;;;;;;;14.00;5.80;;;10.70;99.90;;;;;;5035621;28;20021;-57
2022/01/18 11:45:00;;;;;;;17.20;8.05;;;11.00;99.90;;;;;;5057540;28;20060;-50
2022/01/18 11:47:29;;;;;;;12.57;5.45;;;11.00;99.90;;;;;;5039519;28;20060;-52
2022/01/18 11:49:57;;;;;;;5.68;2.85;;;11.00;99.90;;;;;;5057083;28;20036;-57
2022/01/18 11:52:37;;;;;;;5.88;2.50;;;11.00;99.90;;;;;;5057466;28;20017;-53
2022/01/18 11:55:04;;;;;;;4.55;2.35;;;11.00;99.90;;;;;;5040002;28;20066;-52
2022/01/18 11:57:30;;;;;;;17.70;7.95;;;11.00;99.90;;;;;;5056982;28;20017;-51
2022/01/18 12:00:19;;;;;;;6.60;2.35;;;11.00;99.90;;;;;;5039946;28;20031;-57
2022/01/18 12:02:48;;;;;;;7.07;2.22;;;10.90;99.90;;;;;;5039989;28;20032;-52
2022/01/18 12:05:20;;;;;;;5.82;3.33;;;11.00;99.90;;;;;;5039514;28;20028;-51
2022/01/18 12:07:47;;;;;;;;;;;11.00;99.90;;;;;;5039506;28;20028;-56
2022/01/18 12:10:32;;;;;;;5.47;3.10;;;11.00;99.90;;;;;;5039160;28;19968;-49
2022/01/18 12:13:10;;;;;;;6.93;2.03;;;11.00;99.90;;;;;;5039247;28;20111;-55
2022/01/18 12:15:36;;;;;;;6.25;2.05;;;11.20;99.90;;;;;;5038618;28;20125;-51
2022/01/18 12:18:17;;;;;;;7.10;2.33;;;11.20;99.90;;;;;;5056764;28;20069;-53
2022/01/18 12:20:48;;;;;;;3.22;2.17;;;11.10;99.90;;;;;;5056510;28;20032;-50
2022/01/18 12:23:26;;;;;;;5.20;2.20;;;11.00;99.90;;;;;;5056494;28;20148;-51
2022/01/18 12:26:59;;;;;;;6.18;2.42;;;11.20;99.90;;;;;;5039029;28;20029;-53
2022/01/18 12:34:25;;;;;;;3.78;2.22;;;11.30;99.90;;;;;;5056582;28;20028;-48
2022/01/18 12:37:17;;;;;;;4.80;1.90;;;11.10;99.90;;;;;;5056561;28;20025;-50
2022/01/18 12:45:12;;;;;;;2.97;1.45;;;11.00;99.90;;;;;;5056455;28;20025;-51
2022/01/18 12:47:47;;;;;;;1.70;1.25;;;11.10;99.90;;;;;;5037631;28;20032;-49
2022/01/18 12:50:24;;;;;;;1.75;1.30;;;11.00;99.90;;;;;;5056257;28;20075;-47
2022/01/18 12:53:12;;;;;;;4.13;1.08;;;10.90;99.90;;;;;;5038725;28;20097;-47
2022/01/18 12:55:44;;;;;;;1.45;1.13;;;11.00;99.90;;;;;;5038044;28;20029;-50
2022/01/18 12:58:18;;;;;;;3.40;1.75;;;10.80;99.90;;;;;;5038052;28;20032;-47
2022/01/18 13:00:45;;;;;;;3.85;1.60;;;10.50;99.90;;;;;;5037905;28;20021;-47
2022/01/18 13:03:38;;;;;;;6.30;2.30;;;10.30;99.90;;;;;;5038733;28;20036;-53
2022/01/18 13:06:10;;;;;;;8.38;2.70;;;10.40;99.90;;;;;;5027200;28;20098;-48
2022/01/18 13:08:47;;;;;;;6.05;1.90;;;10.40;99.90;;;;;;5038207;28;20024;-48
2022/01/18 13:11:17;;;;;;;5.53;2.00;;;10.40;99.90;;;;;;5037821;28;20029;-48
2022/01/18 13:13:50;;;;;;;11.87;2.17;;;10.40;99.90;;;;;;5038652;28;20079;-48
2022/01/18 13:26:55;;;;;;;4.93;1.60;;;10.40;99.90;;;;;;5055157;28;20108;-48
2022/01/18 13:29:24;;;;;;;5.72;1.50;;;10.10;99.90;;;;;;5055326;28;20021;-49
2022/01/18 13:32:21;;;;;;;7.93;2.17;;;9.90;99.90;;;;;;5055269;28;20017;-49
2022/01/18 13:34:50;;;;;;;4.00;1.60;;;9.80;99.90;;;;;;5039861;28;20033;-52
2022/01/18 13:37:18;;;;;;;5.00;2.20;;;9.50;99.90;;;;;;5037440;28;20432;-48
2022/01/18 13:39:49;;;;;;;4.22;2.45;;;9.50;99.90;;;;;;5037131;28;20025;-48
2022/01/18 13:42:20;;;;;;;3.72;1.85;;;9.40;99.90;;;;;;5037396;28;20032;-50
2022/01/18 13:45:06;;;;;;;3.20;1.45;;;9.40;99.90;;;;;;5055037;28;20131;-50
2022/01/18 13:47:44;;;;;;;6.53;1.90;;;9.40;99.90;;;;;;5037210;28;20032;-48
2022/01/18 13:50:34;;;;;;;8.23;1.75;;;9.40;99.90;;;;;;5054893;28;20027;-50
2022/01/18 13:53:30;;;;;;;5.32;2.22;;;9.40;99.90;;;;;;5037364;28;20017;-52
2022/01/18 13:56:18;;;;;;;5.15;2.40;;;9.40;99.90;;;;;;5047006;28;20126;-51
2022/01/18 13:58:52;;;;;;;2.72;1.70;;;9.30;99.90;;;;;;5037214;28;20033;-50
2022/01/18 14:01:23;;;;;;;3.45;1.60;;;9.20;99.90;;;;;;5036970;28;20025;-48
2022/01/18 14:03:53;;;;;;;4.90;2.05;;;9.20;99.90;;;;;;5054631;28;20016;-49
2022/01/18 14:06:20;;;;;;;5.88;2.00;;;9.30;99.90;;;;;;5054419;28;20025;-50
2022/01/18 14:08:53;;;;;;;3.58;1.70;;;9.30;99.90;;;;;;5037026;28;20048;-48
2022/01/18 14:11:24;;;;;;;7.10;2.75;;;9.50;99.90;;;;;;5036571;28;20035;-49
2022/01/18 14:14:13;;;;;;;3.63;1.45;;;9.60;99.90;;;;;;5054199;28;20028;-49
2022/01/18 14:16:46;;;;;;;4.35;1.30;;;9.70;99.90;;;;;;5054340;28;20120;-53
2022/01/18 14:19:12;;;;;;;6.25;1.17;;;9.60;99.90;;;;;;5037395;28;20033;-50
2022/01/18 14:21:46;;;;;;;3.08;1.17;;;9.50;99.90;;;;;;5054321;28;20025;-49
2022/01/18 14:24:21;;;;;;;2.25;0.98;;;9.50;99.90;;;;;;5054516;28;20033;-50
2022/01/18 14:26:53;;;;;;;1.35;0.90;;;9.60;99.90;;;;;;5036383;28;20032;-50
2022/01/18 14:29:45;;;;;;;;;;;9.40;99.90;;;;;;5054916;28;20040;-50
2022/01/18 14:32:14;;;;;;;4.28;1.10;;;9.30;99.90;;;;;;5054402;28;19943;-50
2022/01/18 14:34:48;;;;;;;3.08;1.00;;;9.40;99.90;;;;;;5054062;28;20477;-53
2022/01/18 14:37:14;;;;;;;8.02;1.30;;;9.50;99.90;;;;;;5036696;28;20116;-51
2022/01/18 14:39:57;;;;;;;3.08;2.38;;;9.40;99.90;;;;;;5053870;28;20048;-48
2022/01/18 14:42:25;;;;;;;4.97;1.55;;;9.40;99.90;;;;;;5037247;28;20079;-48
2022/01/18 14:47:28;;;;;;;6.70;2.05;;;9.40;99.90;;;;;;5053645;28;20021;-48
2022/01/18 14:50:04;;;;;;;1.60;0.90;;;9.50;99.90;;;;;;5036959;28;20098;-52
2022/01/18 14:52:30;;;;;;;5.40;1.88;;;9.50;99.90;;;;;;5035724;28;20026;-52
2022/01/18 14:54:56;;;;;;;8.20;2.40;;;9.40;99.90;;;;;;5053827;28;20487;-50